Terminal Aerodrome Forecast
Issued by NWS Charleston, WV

Current Version | Previous Version | Graphics & Text | Print | Product List | Glossary On
Versions: 1 2 3 4 5 6 7 8 9 10 11 12 13 14 15 16 17 18 19 20 21 22 23 24 25
000
FTUS41 KRLX 171126
TAFHTS
TAF
KHTS 171126Z 1712/1812 00000KT 6SM -SHSN OVC015
      TEMPO 1713/1717 BKN025
     FM171700 30003KT P6SM BKN025
     FM171900 29004KT P6SM SCT025
     FM180100 28005KT P6SM BKN100
     FM180700 24005KT P6SM SCT150=

USA.gov is the U.S. government's official web portal to all federal, state and local government web resources and services.